sensor_id;sensor_type;location;lat;lon;timestamp;temperature;humidity
7516;DHT22;3799;47.184;8.538;2023-09-07T00:00:23;20.30;99.90
7516;DHT22;3799;47.184;8.538;2023-09-07T00:03:12;20.40;99.90
7516;DHT22;3799;47.184;8.538;2023-09-07T00:06:00;20.40;99.90
7516;DHT22;3799;47.184;8.538;2023-09-07T00:08:48;20.50;99.90
7516;DHT22;3799;47.184;8.538;2023-09-07T00:11:37;20.40;99.90
7516;DHT22;3799;47.184;8.538;2023-09-07T00:14:25;20.40;99.90
7516;DHT22;3799;47.184;8.538;2023-09-07T00:17:18;20.40;99.90
7516;DHT22;3799;47.184;8.538;2023-09-07T00:20:06;20.40;99.90
7516;DHT22;3799;47.184;8.538;2023-09-07T00:23:14;20.30;99.90
7516;DHT22;3799;47.184;8.538;2023-09-07T00:26:03;20.30;99.90
7516;DHT22;3799;47.184;8.538;2023-09-07T00:28:52;20.10;99.90
7516;DHT22;3799;47.184;8.538;2023-09-07T00:31:42;20.10;99.90
7516;DHT22;3799;47.184;8.538;2023-09-07T00:34:30;20.20;99.90
7516;DHT22;3799;47.184;8.538;2023-09-07T00:37:17;20.20;99.90
7516;DHT22;3799;47.184;8.538;2023-09-07T00:40:06;20.00;99.90
7516;DHT22;3799;47.184;8.538;2023-09-07T00:42:59;20.10;99.90
7516;DHT22;3799;47.184;8.538;2023-09-07T00:45:47;20.10;99.90
7516;DHT22;3799;47.184;8.538;2023-09-07T00:48:35;20.10;99.90
7516;DHT22;3799;47.184;8.538;2023-09-07T00:51:22;20.10;99.90
7516;DHT22;3799;47.184;8.538;2023-09-07T00:54:10;20.10;99.90
7516;DHT22;3799;47.184;8.538;2023-09-07T00:57:00;20.00;99.90
7516;DHT22;3799;47.184;8.538;2023-09-07T01:00:02;19.40;99.90
7516;DHT22;3799;47.184;8.538;2023-09-07T01:02:53;19.60;99.90
7516;DHT22;3799;47.184;8.538;2023-09-07T01:06:03;19.60;99.90
7516;DHT22;3799;47.184;8.538;2023-09-07T01:08:52;19.50;99.90
7516;DHT22;3799;47.184;8.538;2023-09-07T01:11:41;19.50;99.90
7516;DHT22;3799;47.184;8.538;2023-09-07T01:14:31;19.40;99.90
7516;DHT22;3799;47.184;8.538;2023-09-07T01:17:19;19.30;99.90
7516;DHT22;3799;47.184;8.538;2023-09-07T01:20:09;19.40;99.90
7516;DHT22;3799;47.184;8.538;2023-09-07T01:23:00;19.40;99.90
7516;DHT22;3799;47.184;8.538;2023-09-07T01:25:48;19.50;99.90
7516;DHT22;3799;47.184;8.538;2023-09-07T01:28:37;19.50;99.90
7516;DHT22;3799;47.184;8.538;2023-09-07T01:31:28;19.70;99.90
7516;DHT22;3799;47.184;8.538;2023-09-07T01:34:16;19.60;99.90
7516;DHT22;3799;47.184;8.538;2023-09-07T01:37:03;19.70;99.90
7516;DHT22;3799;47.184;8.538;2023-09-07T01:39:51;19.60;99.90
7516;DHT22;3799;47.184;8.538;2023-09-07T01:42:38;19.80;99.90
7516;DHT22;3799;47.184;8.538;2023-09-07T01:45:26;19.90;99.90
7516;DHT22;3799;47.184;8.538;2023-09-07T01:48:14;19.80;99.90
7516;DHT22;3799;47.184;8.538;2023-09-07T01:51:09;19.70;99.90
7516;DHT22;3799;47.184;8.538;2023-09-07T01:53:56;19.90;99.90
7516;DHT22;3799;47.184;8.538;2023-09-07T01:56:45;19.80;99.90
7516;DHT22;3799;47.184;8.538;2023-09-07T01:59:32;19.70;99.90
7516;DHT22;3799;47.184;8.538;2023-09-07T02:02:20;19.80;99.90
7516;DHT22;3799;47.184;8.538;2023-09-07T02:05:25;19.60;99.90
7516;DHT22;3799;47.184;8.538;2023-09-07T02:08:14;19.50;99.90
7516;DHT22;3799;47.184;8.538;2023-09-07T02:11:08;19.20;99.90
7516;DHT22;3799;47.184;8.538;2023-09-07T02:13:57;19.30;99.90
7516;DHT22;3799;47.184;8.538;2023-09-07T02:16:47;19.30;99.90
7516;DHT22;3799;47.184;8.538;2023-09-07T02:19:34;19.30;99.90
7516;DHT22;3799;47.184;8.538;2023-09-07T02:22:22;19.40;99.90
7516;DHT22;3799;47.184;8.538;2023-09-07T02:25:12;19.30;99.90
7516;DHT22;3799;47.184;8.538;2023-09-07T02:28:08;19.40;99.90
7516;DHT22;3799;47.184;8.538;2023-09-07T02:31:02;19.30;99.90
7516;DHT22;3799;47.184;8.538;2023-09-07T02:33:50;19.20;99.90
7516;DHT22;3799;47.184;8.538;2023-09-07T02:36:38;19.40;99.90
7516;DHT22;3799;47.184;8.538;2023-09-07T02:39:25;19.60;99.90
7516;DHT22;3799;47.184;8.538;2023-09-07T02:42:13;19.40;99.90
7516;DHT22;3799;47.184;8.538;2023-09-07T02:45:00;19.40;99.90
7516;DHT22;3799;47.184;8.538;2023-09-07T02:47:48;19.20;99.90
7516;DHT22;3799;47.184;8.538;2023-09-07T02:50:37;19.30;99.90
7516;DHT22;3799;47.184;8.538;2023-09-07T02:53:25;19.30;99.90
7516;DHT22;3799;47.184;8.538;2023-09-07T02:56:12;19.30;99.90
7516;DHT22;3799;47.184;8.538;2023-09-07T02:59:00;19.40;99.90
7516;DHT22;3799;47.184;8.538;2023-09-07T03:01:47;19.40;99.90
7516;DHT22;3799;47.184;8.538;2023-09-07T03:04:39;19.50;99.90
7516;DHT22;3799;47.184;8.538;2023-09-07T03:07:29;19.30;99.90
7516;DHT22;3799;47.184;8.538;2023-09-07T03:10:18;19.40;99.90
7516;DHT22;3799;47.184;8.538;2023-09-07T03:13:09;19.30;99.90
7516;DHT22;3799;47.184;8.538;2023-09-07T03:15:56;19.20;99.90
7516;DHT22;3799;47.184;8.538;2023-09-07T03:18:46;19.20;99.90
7516;DHT22;3799;47.184;8.538;2023-09-07T03:21:34;19.10;99.90
7516;DHT22;3799;47.184;8.538;2023-09-07T03:24:21;19.20;99.90
7516;DHT22;3799;47.184;8.538;2023-09-07T03:27:08;19.20;99.90
7516;DHT22;3799;47.184;8.538;2023-09-07T03:29:58;19.20;99.90
7516;DHT22;3799;47.184;8.538;2023-09-07T03:32:47;19.20;99.90
7516;DHT22;3799;47.184;8.538;2023-09-07T03:35:46;19.20;99.90
7516;DHT22;3799;47.184;8.538;2023-09-07T03:38:42;19.20;99.90
7516;DHT22;3799;47.184;8.538;2023-09-07T03:41:30;19.10;99.90
7516;DHT22;3799;47.184;8.538;2023-09-07T03:44:18;19.40;99.90
7516;DHT22;3799;47.184;8.538;2023-09-07T03:47:06;18.90;99.90
7516;DHT22;3799;47.184;8.538;2023-09-07T03:49:53;19.20;99.90
7516;DHT22;3799;47.184;8.538;2023-09-07T03:52:40;18.80;99.90
7516;DHT22;3799;47.184;8.538;2023-09-07T03:55:28;19.00;99.90
7516;DHT22;3799;47.184;8.538;2023-09-07T03:58:21;19.00;99.90
7516;DHT22;3799;47.184;8.538;2023-09-07T04:01:08;18.90;99.90
7516;DHT22;3799;47.184;8.538;2023-09-07T04:03:56;19.00;99.90
7516;DHT22;3799;47.184;8.538;2023-09-07T04:06:48;19.10;99.90
7516;DHT22;3799;47.184;8.538;2023-09-07T04:09:36;19.00;99.90
7516;DHT22;3799;47.184;8.538;2023-09-07T04:12:24;18.70;99.90
7516;DHT22;3799;47.184;8.538;2023-09-07T04:15:16;19.00;99.90
7516;DHT22;3799;47.184;8.538;2023-09-07T04:18:04;19.00;99.90
7516;DHT22;3799;47.184;8.538;2023-09-07T04:20:51;19.20;99.90
7516;DHT22;3799;47.184;8.538;2023-09-07T04:23:41;19.10;99.90
7516;DHT22;3799;47.184;8.538;2023-09-07T04:26:30;19.20;99.90
7516;DHT22;3799;47.184;8.538;2023-09-07T04:29:18;18.90;99.90
7516;DHT22;3799;47.184;8.538;2023-09-07T04:32:19;19.00;99.90
7516;DHT22;3799;47.184;8.538;2023-09-07T04:35:09;18.90;99.90
7516;DHT22;3799;47.184;8.538;2023-09-07T04:37:57;18.90;99.90
7516;DHT22;3799;47.184;8.538;2023-09-07T04:40:48;18.90;99.90
7516;DHT22;3799;47.184;8.538;2023-09-07T04:43:39;18.70;99.90
7516;DHT22;3799;47.184;8.538;2023-09-07T04:46:32;19.10;99.90
7516;DHT22;3799;47.184;8.538;2023-09-07T04:49:19;18.90;99.90
7516;DHT22;3799;47.184;8.538;2023-09-07T04:52:21;19.10;99.90
7516;DHT22;3799;47.184;8.538;2023-09-07T04:55:09;19.20;99.90
7516;DHT22;3799;47.184;8.538;2023-09-07T04:57:57;19.10;99.90
7516;DHT22;3799;47.184;8.538;2023-09-07T05:00:47;19.20;99.90
7516;DHT22;3799;47.184;8.538;2023-09-07T05:03:36;19.30;99.90
7516;DHT22;3799;47.184;8.538;2023-09-07T05:06:26;19.20;99.90
7516;DHT22;3799;47.184;8.538;2023-09-07T05:09:14;18.70;99.90
7516;DHT22;3799;47.184;8.538;2023-09-07T05:12:01;19.10;99.90
7516;DHT22;3799;47.184;8.538;2023-09-07T05:14:50;18.80;99.90
7516;DHT22;3799;47.184;8.538;2023-09-07T05:17:40;18.80;99.90
7516;DHT22;3799;47.184;8.538;2023-09-07T05:20:30;18.70;99.90
7516;DHT22;3799;47.184;8.538;2023-09-07T05:23:20;19.00;99.90
7516;DHT22;3799;47.184;8.538;2023-09-07T05:26:08;19.10;99.90
7516;DHT22;3799;47.184;8.538;2023-09-07T05:28:55;19.30;99.90
7516;DHT22;3799;47.184;8.538;2023-09-07T05:31:44;19.40;99.90
7516;DHT22;3799;47.184;8.538;2023-09-07T05:34:31;19.60;99.90
7516;DHT22;3799;47.184;8.538;2023-09-07T05:37:25;19.70;99.90
7516;DHT22;3799;47.184;8.538;2023-09-07T05:40:13;20.00;99.90
7516;DHT22;3799;47.184;8.538;2023-09-07T05:43:01;20.10;99.90
7516;DHT22;3799;47.184;8.538;2023-09-07T05:45:49;20.30;99.90
7516;DHT22;3799;47.184;8.538;2023-09-07T05:48:39;20.40;99.90
7516;DHT22;3799;47.184;8.538;2023-09-07T05:51:29;20.60;99.90
7516;DHT22;3799;47.184;8.538;2023-09-07T05:54:19;20.70;99.90
7516;DHT22;3799;47.184;8.538;2023-09-07T05:57:12;20.70;99.90
7516;DHT22;3799;47.184;8.538;2023-09-07T05:59:59;20.80;99.90
7516;DHT22;3799;47.184;8.538;2023-09-07T06:02:46;20.80;99.90
7516;DHT22;3799;47.184;8.538;2023-09-07T06:05:38;20.90;99.90
7516;DHT22;3799;47.184;8.538;2023-09-07T06:08:26;20.90;99.90
7516;DHT22;3799;47.184;8.538;2023-09-07T06:11:16;21.00;99.90
7516;DHT22;3799;47.184;8.538;2023-09-07T06:14:04;21.00;99.90
7516;DHT22;3799;47.184;8.538;2023-09-07T06:16:51;21.10;99.90
7516;DHT22;3799;47.184;8.538;2023-09-07T06:19:39;21.10;99.90
7516;DHT22;3799;47.184;8.538;2023-09-07T06:22:41;21.10;99.90
7516;DHT22;3799;47.184;8.538;2023-09-07T06:25:31;21.00;99.90
7516;DHT22;3799;47.184;8.538;2023-09-07T06:28:26;20.90;99.90
7516;DHT22;3799;47.184;8.538;2023-09-07T06:31:13;20.80;99.90
7516;DHT22;3799;47.184;8.538;2023-09-07T06:34:05;20.80;99.90
7516;DHT22;3799;47.184;8.538;2023-09-07T06:36:52;20.90;99.90
7516;DHT22;3799;47.184;8.538;2023-09-07T06:39:40;20.90;99.90
7516;DHT22;3799;47.184;8.538;2023-09-07T06:42:30;21.00;99.90
7516;DHT22;3799;47.184;8.538;2023-09-07T06:45:18;21.00;99.90
7516;DHT22;3799;47.184;8.538;2023-09-07T06:48:05;21.00;99.90
7516;DHT22;3799;47.184;8.538;2023-09-07T06:50:53;21.00;99.90
7516;DHT22;3799;47.184;8.538;2023-09-07T06:53:41;21.00;99.90
7516;DHT22;3799;47.184;8.538;2023-09-07T06:56:43;21.00;99.90
7516;DHT22;3799;47.184;8.538;2023-09-07T06:59:32;21.10;99.90
7516;DHT22;3799;47.184;8.538;2023-09-07T07:02:20;21.10;99.90
7516;DHT22;3799;47.184;8.538;2023-09-07T07:05:10;21.10;99.90
7516;DHT22;3799;47.184;8.538;2023-09-07T07:08:01;21.10;99.90
7516;DHT22;3799;47.184;8.538;2023-09-07T07:10:49;21.20;99.90
7516;DHT22;3799;47.184;8.538;2023-09-07T07:13:36;21.30;99.90
7516;DHT22;3799;47.184;8.538;2023-09-07T07:16:34;21.30;99.90
7516;DHT22;3799;47.184;8.538;2023-09-07T07:19:22;21.40;99.90
7516;DHT22;3799;47.184;8.538;2023-09-07T07:22:10;21.50;99.90
7516;DHT22;3799;47.184;8.538;2023-09-07T07:24:57;21.60;99.90
7516;DHT22;3799;47.184;8.538;2023-09-07T07:27:52;21.70;99.90
7516;DHT22;3799;47.184;8.538;2023-09-07T07:34:14;21.70;99.90
7516;DHT22;3799;47.184;8.538;2023-09-07T07:37:02;21.60;99.90
7516;DHT22;3799;47.184;8.538;2023-09-07T07:40:07;21.60;99.90
7516;DHT22;3799;47.184;8.538;2023-09-07T07:47:31;21.60;99.90
7516;DHT22;3799;47.184;8.538;2023-09-07T07:50:19;21.60;99.90
7516;DHT22;3799;47.184;8.538;2023-09-07T07:53:13;21.70;99.90
7516;DHT22;3799;47.184;8.538;2023-09-07T07:56:02;21.90;99.90
7516;DHT22;3799;47.184;8.538;2023-09-07T07:58:50;22.10;99.90
7516;DHT22;3799;47.184;8.538;2023-09-07T08:01:38;22.20;99.90
7516;DHT22;3799;47.184;8.538;2023-09-07T08:04:26;22.20;99.90
7516;DHT22;3799;47.184;8.538;2023-09-07T08:07:14;22.30;99.90
7516;DHT22;3799;47.184;8.538;2023-09-07T08:10:02;22.30;99.90
7516;DHT22;3799;47.184;8.538;2023-09-07T08:12:56;22.40;99.90
7516;DHT22;3799;47.184;8.538;2023-09-07T08:15:51;22.50;99.90
7516;DHT22;3799;47.184;8.538;2023-09-07T08:18:38;22.60;99.90
7516;DHT22;3799;47.184;8.538;2023-09-07T08:21:27;22.60;99.90
7516;DHT22;3799;47.184;8.538;2023-09-07T08:24:15;22.60;99.90
7516;DHT22;3799;47.184;8.538;2023-09-07T08:27:04;22.70;99.90
7516;DHT22;3799;47.184;8.538;2023-09-07T08:29:54;22.70;99.90
7516;DHT22;3799;47.184;8.538;2023-09-07T08:32:47;22.80;99.90
7516;DHT22;3799;47.184;8.538;2023-09-07T08:35:52;22.90;99.90
7516;DHT22;3799;47.184;8.538;2023-09-07T08:38:44;23.00;99.90
7516;DHT22;3799;47.184;8.538;2023-09-07T08:41:36;23.00;99.90
7516;DHT22;3799;47.184;8.538;2023-09-07T08:44:47;23.10;99.90
7516;DHT22;3799;47.184;8.538;2023-09-07T08:47:39;23.20;99.90
7516;DHT22;3799;47.184;8.538;2023-09-07T08:50:27;23.20;99.90
7516;DHT22;3799;47.184;8.538;2023-09-07T08:53:19;23.30;99.90
7516;DHT22;3799;47.184;8.538;2023-09-07T08:56:07;23.40;99.90
7516;DHT22;3799;47.184;8.538;2023-09-07T08:59:03;23.50;99.90
7516;DHT22;3799;47.184;8.538;2023-09-07T09:01:56;23.60;99.90
7516;DHT22;3799;47.184;8.538;2023-09-07T09:04:45;23.60;99.90
7516;DHT22;3799;47.184;8.538;2023-09-07T09:07:37;23.70;99.90
7516;DHT22;3799;47.184;8.538;2023-09-07T09:10:27;23.80;99.90
7516;DHT22;3799;47.184;8.538;2023-09-07T09:13:31;23.80;99.90
7516;DHT22;3799;47.184;8.538;2023-09-07T09:16:22;23.90;99.90
7516;DHT22;3799;47.184;8.538;2023-09-07T09:19:17;24.00;99.90
7516;DHT22;3799;47.184;8.538;2023-09-07T09:22:14;24.10;99.90
7516;DHT22;3799;47.184;8.538;2023-09-07T09:25:03;24.20;99.90
7516;DHT22;3799;47.184;8.538;2023-09-07T09:28:04;24.30;99.90
7516;DHT22;3799;47.184;8.538;2023-09-07T09:30:55;24.40;99.90
7516;DHT22;3799;47.184;8.538;2023-09-07T09:33:50;24.50;99.90
7516;DHT22;3799;47.184;8.538;2023-09-07T09:36:42;24.70;99.90
7516;DHT22;3799;47.184;8.538;2023-09-07T09:39:34;24.80;99.90
7516;DHT22;3799;47.184;8.538;2023-09-07T09:42:23;24.90;99.90
7516;DHT22;3799;47.184;8.538;2023-09-07T09:45:20;25.00;99.90
7516;DHT22;3799;47.184;8.538;2023-09-07T09:48:16;25.10;99.90
7516;DHT22;3799;47.184;8.538;2023-09-07T09:51:10;25.30;99.90
7516;DHT22;3799;47.184;8.538;2023-09-07T09:54:01;25.40;99.90
7516;DHT22;3799;47.184;8.538;2023-09-07T09:56:51;25.50;99.90
7516;DHT22;3799;47.184;8.538;2023-09-07T09:59:42;25.70;99.90
7516;DHT22;3799;47.184;8.538;2023-09-07T10:02:32;25.70;99.90
7516;DHT22;3799;47.184;8.538;2023-09-07T10:05:25;25.80;99.90
7516;DHT22;3799;47.184;8.538;2023-09-07T10:08:29;25.90;99.90
7516;DHT22;3799;47.184;8.538;2023-09-07T10:11:27;26.00;99.90
7516;DHT22;3799;47.184;8.538;2023-09-07T10:14:20;26.10;99.90
7516;DHT22;3799;47.184;8.538;2023-09-07T10:17:08;26.30;99.90
7516;DHT22;3799;47.184;8.538;2023-09-07T10:20:12;26.40;99.90
7516;DHT22;3799;47.184;8.538;2023-09-07T10:23:04;26.50;99.90
7516;DHT22;3799;47.184;8.538;2023-09-07T10:26:10;26.60;99.90
7516;DHT22;3799;47.184;8.538;2023-09-07T10:28:59;26.70;99.90
7516;DHT22;3799;47.184;8.538;2023-09-07T10:31:52;26.80;99.90
7516;DHT22;3799;47.184;8.538;2023-09-07T10:34:50;27.00;99.90
7516;DHT22;3799;47.184;8.538;2023-09-07T10:37:39;27.20;99.90
7516;DHT22;3799;47.184;8.538;2023-09-07T10:40:32;27.30;99.90
7516;DHT22;3799;47.184;8.538;2023-09-07T10:43:20;27.40;99.90
7516;DHT22;3799;47.184;8.538;2023-09-07T10:46:08;27.40;99.30
7516;DHT22;3799;47.184;8.538;2023-09-07T10:48:56;27.50;99.10
7516;DHT22;3799;47.184;8.538;2023-09-07T10:51:58;27.60;98.60
7516;DHT22;3799;47.184;8.538;2023-09-07T10:54:56;27.70;98.30
7516;DHT22;3799;47.184;8.538;2023-09-07T10:57:46;27.80;97.70
7516;DHT22;3799;47.184;8.538;2023-09-07T11:00:34;28.00;97.10
7516;DHT22;3799;47.184;8.538;2023-09-07T11:03:27;28.20;96.40
7516;DHT22;3799;47.184;8.538;2023-09-07T11:06:39;28.20;95.80
7516;DHT22;3799;47.184;8.538;2023-09-07T11:09:32;28.20;96.00
7516;DHT22;3799;47.184;8.538;2023-09-07T11:12:24;28.30;95.90
7516;DHT22;3799;47.184;8.538;2023-09-07T11:15:15;28.40;94.90
7516;DHT22;3799;47.184;8.538;2023-09-07T11:18:06;28.60;94.50
7516;DHT22;3799;47.184;8.538;2023-09-07T11:20:56;28.70;94.30
7516;DHT22;3799;47.184;8.538;2023-09-07T11:23:51;28.80;93.50
7516;DHT22;3799;47.184;8.538;2023-09-07T11:26:43;29.00;93.60
7516;DHT22;3799;47.184;8.538;2023-09-07T11:29:36;29.20;93.30
7516;DHT22;3799;47.184;8.538;2023-09-07T11:32:37;29.40;91.70
7516;DHT22;3799;47.184;8.538;2023-09-07T11:35:25;29.60;91.50
7516;DHT22;3799;47.184;8.538;2023-09-07T11:38:15;29.80;91.30
7516;DHT22;3799;47.184;8.538;2023-09-07T11:41:04;29.90;89.90
7516;DHT22;3799;47.184;8.538;2023-09-07T11:43:55;30.10;88.00
7516;DHT22;3799;47.184;8.538;2023-09-07T11:46:42;30.20;86.30
7516;DHT22;3799;47.184;8.538;2023-09-07T11:49:37;30.40;84.40
7516;DHT22;3799;47.184;8.538;2023-09-07T11:52:26;30.60;83.10
7516;DHT22;3799;47.184;8.538;2023-09-07T11:55:19;30.70;80.90
7516;DHT22;3799;47.184;8.538;2023-09-07T11:58:08;30.80;80.80
7516;DHT22;3799;47.184;8.538;2023-09-07T12:01:09;30.90;79.60
7516;DHT22;3799;47.184;8.538;2023-09-07T12:03:56;31.00;76.90
7516;DHT22;3799;47.184;8.538;2023-09-07T12:06:44;31.10;76.10
7516;DHT22;3799;47.184;8.538;2023-09-07T12:09:35;31.10;76.90
7516;DHT22;3799;47.184;8.538;2023-09-07T12:12:23;31.10;76.30
7516;DHT22;3799;47.184;8.538;2023-09-07T12:15:11;31.30;75.50
7516;DHT22;3799;47.184;8.538;2023-09-07T12:18:01;31.40;73.30
7516;DHT22;3799;47.184;8.538;2023-09-07T12:20:50;31.50;73.20
7516;DHT22;3799;47.184;8.538;2023-09-07T12:23:47;31.60;74.30
7516;DHT22;3799;47.184;8.538;2023-09-07T12:26:36;31.80;73.40
7516;DHT22;3799;47.184;8.538;2023-09-07T12:29:25;32.10;69.90
7516;DHT22;3799;47.184;8.538;2023-09-07T12:32:12;32.10;67.50
7516;DHT22;3799;47.184;8.538;2023-09-07T12:35:02;32.20;66.70
7516;DHT22;3799;47.184;8.538;2023-09-07T12:38:08;32.20;66.30
7516;DHT22;3799;47.184;8.538;2023-09-07T12:41:01;32.20;64.90
7516;DHT22;3799;47.184;8.538;2023-09-07T12:44:07;32.30;64.50
7516;DHT22;3799;47.184;8.538;2023-09-07T12:46:57;32.30;63.00
7516;DHT22;3799;47.184;8.538;2023-09-07T12:49:52;32.30;62.90
7516;DHT22;3799;47.184;8.538;2023-09-07T12:52:50;32.30;62.40
7516;DHT22;3799;47.184;8.538;2023-09-07T12:55:47;32.50;62.00
7516;DHT22;3799;47.184;8.538;2023-09-07T12:58:45;32.70;60.50
7516;DHT22;3799;47.184;8.538;2023-09-07T13:01:41;33.00;59.40
7516;DHT22;3799;47.184;8.538;2023-09-07T13:04:31;33.10;58.40
7516;DHT22;3799;47.184;8.538;2023-09-07T13:07:25;33.20;58.40
7516;DHT22;3799;47.184;8.538;2023-09-07T13:10:39;33.40;58.20
7516;DHT22;3799;47.184;8.538;2023-09-07T13:16:54;33.80;56.70
7516;DHT22;3799;47.184;8.538;2023-09-07T13:19:43;34.20;56.30
7516;DHT22;3799;47.184;8.538;2023-09-07T13:22:43;34.40;55.60
7516;DHT22;3799;47.184;8.538;2023-09-07T13:25:31;34.50;55.10
7516;DHT22;3799;47.184;8.538;2023-09-07T13:28:31;34.70;53.50
7516;DHT22;3799;47.184;8.538;2023-09-07T13:31:31;34.70;53.20
7516;DHT22;3799;47.184;8.538;2023-09-07T13:34:31;34.70;52.70
7516;DHT22;3799;47.184;8.538;2023-09-07T13:37:27;34.90;52.50
7516;DHT22;3799;47.184;8.538;2023-09-07T13:40:18;35.10;51.40
7516;DHT22;3799;47.184;8.538;2023-09-07T13:43:11;35.20;50.60
7516;DHT22;3799;47.184;8.538;2023-09-07T13:46:07;35.30;50.40
7516;DHT22;3799;47.184;8.538;2023-09-07T13:48:58;35.60;49.40
7516;DHT22;3799;47.184;8.538;2023-09-07T13:51:54;35.80;48.60
7516;DHT22;3799;47.184;8.538;2023-09-07T13:54:47;35.80;47.80
7516;DHT22;3799;47.184;8.538;2023-09-07T13:57:44;35.90;47.40
7516;DHT22;3799;47.184;8.538;2023-09-07T14:00:42;36.00;46.70
7516;DHT22;3799;47.184;8.538;2023-09-07T14:03:38;36.10;46.50
7516;DHT22;3799;47.184;8.538;2023-09-07T14:06:27;36.40;45.90
7516;DHT22;3799;47.184;8.538;2023-09-07T14:09:20;36.60;45.50
7516;DHT22;3799;47.184;8.538;2023-09-07T14:12:13;36.60;44.90
7516;DHT22;3799;47.184;8.538;2023-09-07T14:15:07;36.60;44.70
7516;DHT22;3799;47.184;8.538;2023-09-07T14:18:00;36.60;44.90
7516;DHT22;3799;47.184;8.538;2023-09-07T14:20:49;36.80;44.20
7516;DHT22;3799;47.184;8.538;2023-09-07T14:23:39;37.00;44.30
7516;DHT22;3799;47.184;8.538;2023-09-07T14:26:27;37.10;44.20
7516;DHT22;3799;47.184;8.538;2023-09-07T14:29:20;37.20;44.00
7516;DHT22;3799;47.184;8.538;2023-09-07T14:32:08;37.40;43.50
7516;DHT22;3799;47.184;8.538;2023-09-07T14:34:56;37.70;42.50
7516;DHT22;3799;47.184;8.538;2023-09-07T14:37:44;37.80;42.10
7516;DHT22;3799;47.184;8.538;2023-09-07T14:40:37;37.90;42.20
7516;DHT22;3799;47.184;8.538;2023-09-07T14:43:29;38.00;43.00
7516;DHT22;3799;47.184;8.538;2023-09-07T14:46:34;38.00;42.50
7516;DHT22;3799;47.184;8.538;2023-09-07T14:49:31;38.10;41.70
7516;DHT22;3799;47.184;8.538;2023-09-07T14:52:31;38.20;41.50
7516;DHT22;3799;47.184;8.538;2023-09-07T14:55:30;38.30;41.30
7516;DHT22;3799;47.184;8.538;2023-09-07T14:58:17;38.30;41.20
7516;DHT22;3799;47.184;8.538;2023-09-07T15:01:06;38.30;41.60
7516;DHT22;3799;47.184;8.538;2023-09-07T15:04:08;38.10;42.10
7516;DHT22;3799;47.184;8.538;2023-09-07T15:06:56;38.00;42.40
7516;DHT22;3799;47.184;8.538;2023-09-07T15:09:48;38.00;42.00
7516;DHT22;3799;47.184;8.538;2023-09-07T15:12:42;37.80;42.50
7516;DHT22;3799;47.184;8.538;2023-09-07T15:15:30;37.80;41.90
7516;DHT22;3799;47.184;8.538;2023-09-07T15:18:30;37.80;41.70
7516;DHT22;3799;47.184;8.538;2023-09-07T15:21:20;37.80;42.20
7516;DHT22;3799;47.184;8.538;2023-09-07T15:24:08;37.80;42.70
7516;DHT22;3799;47.184;8.538;2023-09-07T15:26:59;37.90;42.50
7516;DHT22;3799;47.184;8.538;2023-09-07T15:29:56;37.90;42.50
7516;DHT22;3799;47.184;8.538;2023-09-07T15:32:50;37.90;43.80
7516;DHT22;3799;47.184;8.538;2023-09-07T15:36:02;37.90;44.60
7516;DHT22;3799;47.184;8.538;2023-09-07T15:39:10;37.80;44.20
7516;DHT22;3799;47.184;8.538;2023-09-07T15:41:58;37.70;44.10
7516;DHT22;3799;47.184;8.538;2023-09-07T15:44:48;37.60;43.50
7516;DHT22;3799;47.184;8.538;2023-09-07T15:47:59;37.50;43.40
7516;DHT22;3799;47.184;8.538;2023-09-07T15:51:08;37.40;43.10
7516;DHT22;3799;47.184;8.538;2023-09-07T15:54:00;37.20;44.10
7516;DHT22;3799;47.184;8.538;2023-09-07T15:56:47;37.10;44.00
7516;DHT22;3799;47.184;8.538;2023-09-07T16:00:00;37.10;44.80
7516;DHT22;3799;47.184;8.538;2023-09-07T17:20:36;32.20;53.30
7516;DHT22;3799;47.184;8.538;2023-09-07T17:23:25;32.00;53.90
7516;DHT22;3799;47.184;8.538;2023-09-07T17:26:12;31.80;54.40
7516;DHT22;3799;47.184;8.538;2023-09-07T17:29:07;31.60;54.80
7516;DHT22;3799;47.184;8.538;2023-09-07T17:32:04;31.40;54.90
7516;DHT22;3799;47.184;8.538;2023-09-07T17:34:52;31.20;55.10
7516;DHT22;3799;47.184;8.538;2023-09-07T17:37:46;31.00;55.50
7516;DHT22;3799;47.184;8.538;2023-09-07T17:40:33;30.70;56.40
7516;DHT22;3799;47.184;8.538;2023-09-07T17:43:20;30.30;56.40
7516;DHT22;3799;47.184;8.538;2023-09-07T17:46:15;29.90;57.00
7516;DHT22;3799;47.184;8.538;2023-09-07T17:49:03;29.60;57.70
7516;DHT22;3799;47.184;8.538;2023-09-07T17:51:50;29.20;58.30
7516;DHT22;3799;47.184;8.538;2023-09-07T17:54:38;28.80;58.90
7516;DHT22;3799;47.184;8.538;2023-09-07T17:57:25;28.40;59.70
7516;DHT22;3799;47.184;8.538;2023-09-07T18:00:23;28.10;61.00
7516;DHT22;3799;47.184;8.538;2023-09-07T18:03:17;27.80;63.00
7516;DHT22;3799;47.184;8.538;2023-09-07T18:06:05;27.40;64.90
7516;DHT22;3799;47.184;8.538;2023-09-07T18:08:54;27.00;67.10
7516;DHT22;3799;47.184;8.538;2023-09-07T18:11:42;26.70;69.60
7516;DHT22;3799;47.184;8.538;2023-09-07T18:14:33;26.40;71.90
7516;DHT22;3799;47.184;8.538;2023-09-07T18:17:20;26.20;75.60
7516;DHT22;3799;47.184;8.538;2023-09-07T18:20:09;25.90;80.90
7516;DHT22;3799;47.184;8.538;2023-09-07T18:23:04;25.60;87.10
7516;DHT22;3799;47.184;8.538;2023-09-07T18:25:52;25.40;92.00
7516;DHT22;3799;47.184;8.538;2023-09-07T18:28:39;25.20;95.40
7516;DHT22;3799;47.184;8.538;2023-09-07T18:31:40;25.10;97.70
7516;DHT22;3799;47.184;8.538;2023-09-07T18:34:30;25.00;99.60
7516;DHT22;3799;47.184;8.538;2023-09-07T18:37:17;24.80;99.90
7516;DHT22;3799;47.184;8.538;2023-09-07T18:40:18;24.70;99.90
7516;DHT22;3799;47.184;8.538;2023-09-07T18:43:06;24.70;99.90
7516;DHT22;3799;47.184;8.538;2023-09-07T18:45:56;24.60;99.90
7516;DHT22;3799;47.184;8.538;2023-09-07T18:48:49;24.50;99.90
7516;DHT22;3799;47.184;8.538;2023-09-07T18:51:37;24.40;99.90
7516;DHT22;3799;47.184;8.538;2023-09-07T18:54:26;24.30;99.90
7516;DHT22;3799;47.184;8.538;2023-09-07T18:57:13;24.30;99.90
7516;DHT22;3799;47.184;8.538;2023-09-07T19:00:01;24.20;99.90
7516;DHT22;3799;47.184;8.538;2023-09-07T19:02:48;24.20;99.90
7516;DHT22;3799;47.184;8.538;2023-09-07T19:05:45;24.20;99.90
7516;DHT22;3799;47.184;8.538;2023-09-07T19:08:32;24.20;99.90
7516;DHT22;3799;47.184;8.538;2023-09-07T19:11:20;24.20;99.90
7516;DHT22;3799;47.184;8.538;2023-09-07T19:14:21;24.20;99.90
7516;DHT22;3799;47.184;8.538;2023-09-07T19:17:10;24.20;99.90
7516;DHT22;3799;47.184;8.538;2023-09-07T19:20:05;24.00;99.90
7516;DHT22;3799;47.184;8.538;2023-09-07T19:22:53;24.00;99.90
7516;DHT22;3799;47.184;8.538;2023-09-07T19:25:43;23.90;99.90
7516;DHT22;3799;47.184;8.538;2023-09-07T19:28:30;23.80;99.90
7516;DHT22;3799;47.184;8.538;2023-09-07T19:31:18;23.80;99.90
7516;DHT22;3799;47.184;8.538;2023-09-07T19:34:15;23.70;99.90
7516;DHT22;3799;47.184;8.538;2023-09-07T19:37:03;23.70;99.90
7516;DHT22;3799;47.184;8.538;2023-09-07T19:39:50;23.70;99.90
7516;DHT22;3799;47.184;8.538;2023-09-07T19:42:38;23.60;99.90
7516;DHT22;3799;47.184;8.538;2023-09-07T19:45:25;23.50;99.90
7516;DHT22;3799;47.184;8.538;2023-09-07T19:48:14;23.50;99.90
7516;DHT22;3799;47.184;8.538;2023-09-07T19:51:12;23.50;99.90
7516;DHT22;3799;47.184;8.538;2023-09-07T19:54:01;23.40;99.90
7516;DHT22;3799;47.184;8.538;2023-09-07T19:56:48;23.40;99.90
7516;DHT22;3799;47.184;8.538;2023-09-07T19:59:36;23.30;99.90
7516;DHT22;3799;47.184;8.538;2023-09-07T20:02:23;23.30;99.90
7516;DHT22;3799;47.184;8.538;2023-09-07T20:05:19;23.30;99.90
7516;DHT22;3799;47.184;8.538;2023-09-07T20:08:06;23.20;99.90